National Weather Service United States Department of Commerce

Snow Will Persist in the Northeast and Great Lake States

Heavy Lake Effect snow will continue to the lee of the Great Lakes for the next couple of days. Snow will also return to the Northeast by Tuesday as another front moves in. Bitter cold wind chills can be expected in the Upper Mississippi Valley. Freezing temperatures will even impact central Florida. Meanwhile, elevated fire weather conditions will persist in southern California. Read More >

                                      ZTL Airspace Summary / KCHA TAF                    For ATC Planning Purposes Only
ZTL Airspace Summary:
High pressure will dominate ZTL, producing VFR conditions under mostly clear skies. Surface winds will be west to southwest at 5-8kts. Heavy ground frost is expected until 14z. Flight Hazards: LGT-MOD Turbulence above FL180 over south GA/AL.

Updated: 12/11/2017 6:00 AM
 

Chattanooga Terminal Aerodrome Forecast:
 
FTUS80 KCHA 111124
KCHA 111120Z 1112/1212 VRB03KT P6SM SKC
     FM111600 19007KT P6SM FEW250
     FM120100 22006KT P6SM BKN200
     FM121000 32009KT P6SM BKN035

 

CHA METAR:  
SAUS80 KCHA 111100 RRA
METAR KCHA 111053Z 00000KT 10SM CLR M01/M04 A3018 RMK AO2 SLP224
     T10111039 $

Go to KCHA TAF TDA
Go to KCHA TAF TDA

CHA TRACON HAZARDS
CHA TRACON: SFC-10000
AVG CIG BASE WHERE REPORTED BLW 10000FT: NONE REPORTED
LOWEST REPORTED CIG: NONE REPORTED
LOWEST REPORTED FLIGHT CAT: VFR
METARS:
K2A0 111115Z AUTO 00000KT 10SM FEW020 M04/M04 A3017 RMK A01
KCHA 111053Z 00000KT 10SM CLR M01/M04 A3018 RMK AO2 SLP224 T10111039 $
KRZR 111115Z AUTO 00000KT 10SM CLR M02/M03 A3016 RMK A01
K9A5 111115Z AUTO 00000KT 10SM CLR M04/M06 A3019 RMK AO2 T10401058
KDNN 111115Z AUTO 00000KT 10SM CLR M03/M03 A3021 RMK AO2

CHA TRACON HAZARD

Forecast Surface Map Loop / Collaborative Convective Forecast Product / Vertical Wind Profile
Weather Map

 

AIRMETs & SIGMETS/ Southeast Radar loop / Satellite Image (click on image to enlarge)
Weather Map Southeast Radar Loop

satellite